Time;durP1;ratioP1;P1;durP2;ratioP2;P2;SDS_P1;SDS_P2;PMS_P1;PMS_P2;Temp;Humidity;BMP_temperature;BMP_pressure;BME280_temperature;BME280_humidity;BME280_pressure;Samples;Min_cycle;Max_cycle;Signal;HPM_P1;HPM_P2
2022/06/06 00:00:50;;;;;;;46.85;24.50;;;15.90;91.10;;;;;;5113702;28;20028;-30
2022/06/06 00:03:18;;;;;;;46.25;24.23;;;15.80;91.10;;;;;;5113959;28;20024;-31
2022/06/06 00:05:47;;;;;;;44.63;22.90;;;15.80;91.10;;;;;;5113901;28;20012;-33
2022/06/06 00:08:13;;;;;;;50.65;26.02;;;15.80;91.10;;;;;;5113805;28;20051;-29
2022/06/06 00:10:40;;;;;;;45.35;24.95;;;15.80;91.10;;;;;;5113513;28;20028;-29
2022/06/06 00:13:07;;;;;;;45.67;25.15;;;15.70;91.10;;;;;;5113565;28;20020;-29
2022/06/06 00:15:34;;;;;;;48.83;27.65;;;15.60;91.10;;;;;;5113580;28;20019;-29
2022/06/06 00:18:00;;;;;;;45.08;25.27;;;15.60;91.20;;;;;;5113756;28;20416;-29
2022/06/06 00:20:26;;;;;;;37.75;22.40;;;15.60;91.20;;;;;;5113689;28;20023;-29
2022/06/06 00:22:52;;;;;;;39.10;22.63;;;15.50;91.20;;;;;;5113310;28;20031;-29
2022/06/06 00:25:17;;;;;;;37.13;22.10;;;15.50;91.20;;;;;;5113620;28;20458;-29
2022/06/06 00:27:43;;;;;;;40.45;22.15;;;15.60;91.20;;;;;;5113351;28;20028;-31
2022/06/06 00:30:09;;;;;;;35.05;21.40;;;15.50;91.10;;;;;;5113183;28;20032;-29
2022/06/06 00:35:20;;;;;;;36.15;20.23;;;15.60;91.00;;;;;;5113212;28;20123;-29
2022/06/06 00:37:47;;;;;;;33.88;20.58;;;15.60;91.00;;;;;;5113408;28;20038;-28
2022/06/06 00:40:15;;;;;;;34.08;20.73;;;15.60;91.00;;;;;;5113926;28;20024;-31
2022/06/06 00:42:42;;;;;;;36.05;19.42;;;15.60;90.90;;;;;;5113642;28;20363;-29
2022/06/06 00:45:25;;;;;;;34.70;19.42;;;15.60;90.90;;;;;;5113497;28;20103;-31
2022/06/06 00:47:57;;;;;;;31.48;19.17;;;15.60;90.90;;;;;;5113159;28;20035;-29
2022/06/06 00:50:37;;;;;;;28.60;18.23;;;15.50;90.80;;;;;;5113115;28;20077;-30
2022/06/06 00:53:04;;;;;;;26.58;17.08;;;15.50;90.80;;;;;;5112160;28;20041;-30
2022/06/06 00:55:33;;;;;;;26.27;16.13;;;15.40;90.80;;;;;;5113044;28;20102;-29
2022/06/06 00:58:08;;;;;;;26.33;16.05;;;15.40;90.80;;;;;;5112809;28;20020;-30
2022/06/06 01:00:36;;;;;;;24.70;15.07;;;15.40;90.80;;;;;;5113172;28;20494;-30
2022/06/06 01:03:05;;;;;;;24.92;14.93;;;15.50;90.80;;;;;;5113986;28;20027;-29
2022/06/06 01:05:31;;;;;;;24.60;15.35;;;15.50;90.80;;;;;;5117147;27;20102;-30
2022/06/06 01:07:57;;;;;;;21.60;14.27;;;15.50;90.80;;;;;;5115624;28;20023;-28
2022/06/06 01:10:23;;;;;;;21.55;12.75;;;15.50;90.80;;;;;;5116867;27;20031;-30
2022/06/06 01:12:53;;;;;;;23.02;13.23;;;15.50;90.70;;;;;;5115461;28;20115;-32
2022/06/06 01:15:22;;;;;;;21.10;13.30;;;15.50;90.70;;;;;;5117159;28;20431;-29
2022/06/06 01:17:51;;;;;;;19.77;12.20;;;15.50;90.70;;;;;;5117070;28;20024;-33
2022/06/06 01:20:44;;;;;;;23.10;14.13;;;15.50;90.70;;;;;;5116729;28;20027;-29
2022/06/06 01:23:37;;;;;;;19.87;12.27;;;15.60;90.70;;;;;;5116876;28;20030;-31
2022/06/06 01:26:30;;;;;;;23.67;13.50;;;15.60;90.60;;;;;;5116698;28;20111;-29
2022/06/06 01:29:26;;;;;;;22.50;13.20;;;15.60;90.60;;;;;;5116346;27;20036;-29
2022/06/06 01:32:00;;;;;;;21.38;12.70;;;15.60;90.60;;;;;;5116080;27;20057;-29
2022/06/06 01:34:38;;;;;;;21.40;12.80;;;15.70;90.60;;;;;;5116604;28;20038;-29
2022/06/06 01:37:21;;;;;;;21.98;12.50;;;15.60;90.50;;;;;;5116402;27;20031;-34
2022/06/06 01:39:47;;;;;;;22.05;13.50;;;15.60;90.60;;;;;;5116214;28;20034;-29
2022/06/06 01:42:25;;;;;;;21.05;12.65;;;15.60;90.50;;;;;;5116136;28;20020;-30
2022/06/06 01:45:02;;;;;;;21.70;13.57;;;15.50;90.60;;;;;;5115034;28;20054;-29
2022/06/06 01:47:36;;;;;;;23.10;13.90;;;15.50;90.60;;;;;;5115042;28;20114;-29
2022/06/06 01:50:04;;;;;;;20.70;13.00;;;15.50;90.70;;;;;;5116139;28;20048;-29
2022/06/06 01:52:29;;;;;;;20.40;12.50;;;15.50;90.70;;;;;;5116005;28;20379;-35
2022/06/06 01:54:57;;;;;;;21.95;12.68;;;15.40;90.70;;;;;;5115985;28;20024;-29
2022/06/06 01:57:24;;;;;;;19.60;12.55;;;15.40;90.80;;;;;;5116309;28;20020;-29
2022/06/06 01:59:52;;;;;;;20.30;12.32;;;15.40;90.80;;;;;;5115817;27;20076;-29
2022/06/06 02:02:18;;;;;;;23.98;12.73;;;15.40;90.80;;;;;;5115975;28;20080;-31
2022/06/06 02:04:45;;;;;;;23.30;12.60;;;15.40;90.80;;;;;;5115726;28;20076;-35
2022/06/06 02:07:10;;;;;;;22.30;13.15;;;15.40;90.80;;;;;;5115681;28;20027;-30
2022/06/06 02:09:36;;;;;;;20.67;12.90;;;15.40;90.80;;;;;;5115544;28;20020;-33
2022/06/06 02:12:02;;;;;;;20.38;12.32;;;15.40;91.00;;;;;;5115701;28;20042;-29
2022/06/06 02:14:28;;;;;;;23.83;12.65;;;15.40;90.80;;;;;;5114536;28;20024;-29
2022/06/06 02:16:54;;;;;;;22.13;12.70;;;15.40;90.70;;;;;;5115275;28;20028;-30
2022/06/06 02:19:20;;;;;;;21.98;13.55;;;15.40;90.70;;;;;;5115750;28;20019;-28
2022/06/06 02:21:46;;;;;;;22.15;13.68;;;15.40;90.70;;;;;;5115271;28;20103;-30
2022/06/06 02:24:11;;;;;;;24.40;13.57;;;15.40;90.70;;;;;;5115597;28;20416;-29
2022/06/06 02:26:37;;;;;;;20.92;13.30;;;15.40;90.60;;;;;;5115070;28;20019;-29
2022/06/06 02:29:05;;;;;;;19.52;12.25;;;15.40;90.60;;;;;;5115649;28;20024;-31
2022/06/06 02:31:37;;;;;;;18.88;11.55;;;15.50;90.70;;;;;;5113996;28;20065;-29
2022/06/06 02:34:06;;;;;;;21.30;12.00;;;15.50;90.60;;;;;;5114124;28;20031;-29
2022/06/06 02:36:33;;;;;;;21.48;13.40;;;15.50;90.60;;;;;;5115285;28;20047;-29
2022/06/06 02:38:58;;;;;;;23.63;13.27;;;15.50;90.60;;;;;;5115164;28;20020;-29
2022/06/06 02:41:25;;;;;;;27.42;14.57;;;15.50;90.60;;;;;;5115014;28;20077;-29
2022/06/06 02:43:52;;;;;;;24.67;14.00;;;15.50;90.60;;;;;;5113555;28;20475;-29
2022/06/06 02:46:18;;;;;;;23.30;13.60;;;15.60;90.60;;;;;;5114904;28;20551;-30
2022/06/06 02:48:44;;;;;;;25.85;14.50;;;15.60;90.60;;;;;;5114683;28;20047;-45
2022/06/06 02:51:10;;;;;;;27.83;14.68;;;15.70;90.60;;;;;;5114850;28;20107;-45
2022/06/06 02:53:36;;;;;;;25.35;15.00;;;15.70;90.60;;;;;;5114547;28;20031;-44
2022/06/06 02:56:02;;;;;;;26.25;15.00;;;15.70;90.80;;;;;;5114948;28;20391;-45
2022/06/06 02:58:28;;;;;;;28.05;15.18;;;15.70;90.50;;;;;;5114445;28;20067;-44
2022/06/06 03:01:05;;;;;;;25.55;14.93;;;15.70;90.50;;;;;;5114922;28;20472;-45
2022/06/06 03:03:32;;;;;;;27.85;15.98;;;15.70;90.80;;;;;;5114706;28;20399;-45
2022/06/06 03:06:05;;;;;;;23.33;14.02;;;15.70;90.40;;;;;;5114753;28;20350;-45
2022/06/06 03:08:52;;;;;;;27.92;16.55;;;15.70;90.40;;;;;;5113121;28;20063;-45
2022/06/06 03:11:58;;;;;;;26.15;15.30;;;15.70;90.40;;;;;;5114408;28;20057;-45
2022/06/06 03:14:33;;;;;;;24.58;15.27;;;15.70;90.70;;;;;;5114477;28;20035;-45
2022/06/06 03:20:48;;;;;;;24.40;15.25;;;15.70;90.40;;;;;;5114307;28;20080;-45
2022/06/06 03:23:28;;;;;;;24.30;14.98;;;15.80;90.40;;;;;;5114203;28;20031;-45
2022/06/06 03:26:05;;;;;;;28.02;15.85;;;15.80;90.30;;;;;;5113597;28;20028;-44
2022/06/06 03:28:36;;;;;;;26.40;16.10;;;15.80;90.30;;;;;;5114106;28;20026;-45
2022/06/06 03:31:33;;;;;;;32.00;16.10;;;15.80;90.40;;;;;;5112675;28;20108;-45
2022/06/06 03:34:30;;;;;;;29.67;17.30;;;15.70;90.30;;;;;;5114170;28;20041;-46
2022/06/06 03:37:22;;;;;;;27.20;15.43;;;15.70;90.40;;;;;;5113786;28;20429;-44
2022/06/06 03:40:04;;;;;;;26.95;15.68;;;15.70;90.40;;;;;;5094278;28;20070;-45
2022/06/06 03:43:11;;;;;;;24.90;14.63;;;15.70;90.40;;;;;;5112562;28;20024;-44
2022/06/06 03:45:51;;;;;;;27.23;15.40;;;15.80;90.40;;;;;;5102000;28;20092;-35
2022/06/06 03:48:38;;;;;;;24.20;14.85;;;15.80;90.40;;;;;;5113798;28;20023;-37
2022/06/06 03:51:29;;;;;;;29.05;15.02;;;15.80;90.40;;;;;;5112265;28;20118;-40
2022/06/06 03:54:02;;;;;;;23.45;14.02;;;15.80;90.40;;;;;;5113775;28;20376;-37
2022/06/06 03:57:01;;;;;;;24.83;14.52;;;15.90;90.40;;;;;;5113878;28;20099;-37
2022/06/06 03:59:29;;;;;;;27.05;14.93;;;15.90;90.40;;;;;;5113544;28;20047;-36
2022/06/06 04:01:59;;;;;;;21.45;13.38;;;15.90;90.40;;;;;;5113693;28;20551;-36
2022/06/06 04:04:28;;;;;;;23.05;13.38;;;15.90;90.60;;;;;;5113268;28;20028;-37
2022/06/06 04:06:57;;;;;;;24.60;13.43;;;15.90;90.30;;;;;;5113547;28;20024;-36
2022/06/06 04:09:33;;;;;;;24.52;13.52;;;15.90;90.40;;;;;;5112184;28;20036;-37
2022/06/06 04:12:01;;;;;;;21.65;12.70;;;15.90;90.40;;;;;;5113613;28;20027;-37
2022/06/06 04:14:30;;;;;;;23.95;14.02;;;15.90;90.40;;;;;;5113406;28;20077;-37
2022/06/06 04:17:22;;;;;;;23.42;14.75;;;15.90;90.30;;;;;;5113319;28;20391;-38
2022/06/06 04:20:08;;;;;;;25.70;13.73;;;15.90;90.60;;;;;;5113519;28;20039;-37
2022/06/06 04:23:03;;;;;;;21.27;12.98;;;15.90;90.40;;;;;;5113344;28;20031;-37
2022/06/06 04:25:39;;;;;;;23.15;15.00;;;15.90;90.40;;;;;;5113306;28;20015;-37
2022/06/06 04:28:30;;;;;;;22.92;14.65;;;15.90;90.40;;;;;;5113700;28;20042;-35
2022/06/06 04:31:09;;;;;;;22.38;14.00;;;15.90;90.40;;;;;;5107356;28;20044;-36
2022/06/06 04:33:51;;;;;;;23.35;14.27;;;15.90;90.40;;;;;;5113252;28;20039;-35
2022/06/06 04:36:38;;;;;;;25.63;15.95;;;15.90;90.40;;;;;;5113383;28;20466;-38
2022/06/06 04:39:24;;;;;;;28.10;17.63;;;15.90;90.40;;;;;;5112381;28;20023;-38
2022/06/06 04:42:02;;;;;;;32.72;19.67;;;15.80;90.30;;;;;;5112805;28;20019;-38
2022/06/06 04:44:49;;;;;;;29.95;18.08;;;15.90;90.30;;;;;;5113020;28;20051;-37
2022/06/06 04:47:23;;;;;;;32.33;18.52;;;15.90;90.30;;;;;;5112929;28;20039;-37
2022/06/06 04:49:50;;;;;;;29.58;18.77;;;15.80;90.30;;;;;;5113237;28;20030;-38
2022/06/06 04:52:17;;;;;;;29.38;18.42;;;15.80;90.20;;;;;;5113121;28;20027;-38
2022/06/06 04:54:48;;;;;;;33.20;20.35;;;15.80;90.20;;;;;;5113010;28;20038;-38
2022/06/06 04:57:15;;;;;;;31.48;19.75;;;15.80;90.10;;;;;;5112875;28;20027;-38
2022/06/06 04:59:42;;;;;;;29.08;17.77;;;15.80;90.00;;;;;;5112854;28;20044;-37
2022/06/06 05:02:08;;;;;;;29.45;17.52;;;15.80;90.00;;;;;;5112859;28;20028;-37
2022/06/06 05:04:33;;;;;;;31.85;19.05;;;15.80;89.90;;;;;;5111920;28;20036;-38
2022/06/06 05:07:34;;;;;;;31.95;19.65;;;15.70;89.70;;;;;;5112853;28;20380;-38
2022/06/06 05:10:04;;;;;;;29.40;19.40;;;15.70;89.40;;;;;;5103253;28;20040;-38
2022/06/06 05:13:04;;;;;;;29.73;17.73;;;15.70;89.30;;;;;;5112870;28;20020;-38
2022/06/06 05:15:56;;;;;;;23.95;16.42;;;15.70;89.10;;;;;;5113000;28;20028;-38
2022/06/06 05:18:34;;;;;;;23.92;15.70;;;15.60;89.00;;;;;;5112597;28;20042;-38
2022/06/06 05:20:59;;;;;;;24.88;16.20;;;15.60;89.10;;;;;;5112584;28;20117;-36
2022/06/06 05:23:31;;;;;;;26.23;17.30;;;15.60;89.00;;;;;;5112859;28;20027;-38
2022/06/06 05:26:14;;;;;;;25.80;16.90;;;15.70;88.90;;;;;;5112491;28;20076;-38
2022/06/06 05:28:58;;;;;;;25.65;16.90;;;15.60;88.80;;;;;;5112732;28;20427;-36
2022/06/06 05:32:02;;;;;;;26.65;18.27;;;15.70;88.70;;;;;;5112418;28;20089;-37
2022/06/06 05:34:37;;;;;;;24.70;15.35;;;15.70;88.30;;;;;;5112469;28;20024;-38
2022/06/06 05:37:02;;;;;;;22.05;15.13;;;15.70;88.30;;;;;;5112692;28;20417;-38
2022/06/06 05:40:06;;;;;;;26.88;15.85;;;15.70;88.30;;;;;;5112403;28;20069;-37
2022/06/06 05:43:05;;;;;;;22.88;15.85;;;15.70;88.10;;;;;;5112499;28;20031;-38
2022/06/06 05:46:09;;;;;;;20.80;14.13;;;15.70;87.70;;;;;;5095946;28;20028;-37
2022/06/06 05:49:10;;;;;;;19.83;13.98;;;15.80;87.70;;;;;;5112461;28;20035;-35
2022/06/06 05:51:59;;;;;;;20.02;13.93;;;15.80;87.40;;;;;;5073069;28;20040;-37
2022/06/06 05:54:34;;;;;;;18.95;13.15;;;15.80;86.60;;;;;;5113938;28;20039;-38
2022/06/06 05:57:55;;;;;;;19.45;12.32;;;15.80;86.80;;;;;;5115964;28;20099;-38
2022/06/06 06:01:17;;;;;;;16.05;11.10;;;15.80;86.50;;;;;;5106395;28;20184;-38
2022/06/06 06:03:43;;;;;;;13.75;9.88;;;15.80;87.30;;;;;;5073089;28;20024;-36
2022/06/06 06:06:27;;;;;;;13.75;10.23;;;15.70;86.60;;;;;;5073178;28;20035;-38
2022/06/06 06:09:23;;;;;;;14.88;9.60;;;15.80;86.60;;;;;;5103918;28;20046;-36
2022/06/06 06:12:13;;;;;;;11.32;8.55;;;15.80;86.40;;;;;;5116200;28;20409;-37
2022/06/06 06:15:17;;;;;;;12.32;9.15;;;15.70;86.20;;;;;;5115683;28;20028;-40
2022/06/06 06:17:44;;;;;;;12.45;8.23;;;15.80;86.00;;;;;;5115965;28;20050;-42
2022/06/06 06:20:17;;;;;;;10.23;8.40;;;15.80;85.70;;;;;;5115878;28;20103;-38
2022/06/06 06:22:51;;;;;;;10.35;7.80;;;15.80;85.10;;;;;;5115578;28;20348;-37
2022/06/06 06:25:19;;;;;;;14.93;8.32;;;15.80;84.90;;;;;;5115746;28;20023;-38
2022/06/06 06:27:46;;;;;;;9.75;7.22;;;15.90;84.80;;;;;;5115325;28;20032;-36
2022/06/06 06:30:12;;;;;;;9.25;7.30;;;15.90;84.40;;;;;;5115434;27;20024;-38
2022/06/06 06:32:49;;;;;;;9.85;7.05;;;16.00;84.40;;;;;;5115259;28;20447;-36
2022/06/06 06:35:28;;;;;;;9.25;7.05;;;16.00;84.10;;;;;;5116108;28;20031;-38
2022/06/06 06:38:15;;;;;;;9.63;6.78;;;16.10;83.40;;;;;;5115196;28;20106;-45
2022/06/06 06:40:51;;;;;;;7.90;6.22;;;16.10;83.50;;;;;;5114955;28;20031;-36
2022/06/06 06:43:42;;;;;;;8.43;6.68;;;16.10;83.40;;;;;;5115028;28;20059;-38
2022/06/06 06:46:33;;;;;;;9.77;7.07;;;16.20;83.20;;;;;;5114069;28;20103;-38
2022/06/06 06:49:20;;;;;;;11.05;7.28;;;16.20;82.90;;;;;;5114986;28;20020;-38
2022/06/06 06:52:10;;;;;;;8.70;7.13;;;16.30;82.70;;;;;;5115142;28;20471;-38
2022/06/06 06:54:58;;;;;;;10.27;6.93;;;16.40;82.90;;;;;;5114914;28;20455;-36
2022/06/06 06:57:37;;;;;;;7.82;6.53;;;16.40;82.70;;;;;;5108151;28;20120;-38
2022/06/06 07:00:11;;;;;;;8.07;6.03;;;16.40;82.60;;;;;;5114352;28;20047;-38
2022/06/06 07:09:05;;;;;;;6.47;4.85;;;16.50;81.70;;;;;;5098416;28;20066;-38
2022/06/06 07:12:00;;;;;;;7.47;5.43;;;16.50;81.50;;;;;;5114265;28;20390;-39
2022/06/06 07:14:44;;;;;;;7.65;6.00;;;16.60;80.80;;;;;;5114377;28;20022;-38
2022/06/06 07:17:11;;;;;;;5.95;5.00;;;16.50;80.00;;;;;;5114391;28;20471;-45
2022/06/06 07:19:49;;;;;;;11.88;6.50;;;16.60;80.40;;;;;;5114437;28;20012;-39
2022/06/06 07:22:16;;;;;;;8.52;5.18;;;16.60;80.00;;;;;;5114469;28;20031;-38
2022/06/06 07:24:43;;;;;;;6.75;5.75;;;16.60;80.10;;;;;;5114179;28;20073;-40
2022/06/06 07:27:10;;;;;;;8.13;6.40;;;16.70;80.10;;;;;;5114520;28;20103;-38
2022/06/06 07:29:37;;;;;;;8.65;5.80;;;16.70;80.00;;;;;;5113904;28;20479;-36
2022/06/06 07:32:16;;;;;;;6.80;5.22;;;16.80;80.00;;;;;;5113970;28;20031;-38
2022/06/06 07:35:11;;;;;;;7.43;6.10;;;16.90;79.90;;;;;;5113916;28;20112;-47
2022/06/06 07:37:51;;;;;;;8.40;5.57;;;17.00;79.50;;;;;;5113819;28;20039;-39
2022/06/06 07:40:32;;;;;;;6.25;4.78;;;17.00;79.40;;;;;;5114243;28;20040;-38
2022/06/06 07:43:11;;;;;;;5.78;4.20;;;17.00;78.90;;;;;;5114089;28;20020;-38
2022/06/06 07:45:53;;;;;;;5.15;4.65;;;17.10;78.30;;;;;;5113905;28;20406;-37
2022/06/06 07:48:48;;;;;;;5.13;4.63;;;17.10;77.50;;;;;;5112604;28;20020;-40
2022/06/06 07:51:34;;;;;;;5.60;4.47;;;17.00;77.40;;;;;;5113818;28;20028;-40
2022/06/06 07:54:34;;;;;;;5.05;3.50;;;17.00;77.10;;;;;;5113739;28;20051;-39
2022/06/06 07:57:09;;;;;;;7.20;3.40;;;17.00;77.80;;;;;;5113740;28;20107;-41
2022/06/06 08:00:03;;;;;;;5.13;3.10;;;17.10;76.60;;;;;;5114006;28;20051;-46
2022/06/06 08:02:28;;;;;;;4.45;3.15;;;17.10;75.90;;;;;;5114024;28;20024;-39
2022/06/06 08:05:09;;;;;;;3.60;2.75;;;17.20;75.60;;;;;;5113630;28;20383;-39
2022/06/06 08:07:55;;;;;;;5.50;2.92;;;17.20;75.70;;;;;;5114098;28;20123;-40
2022/06/06 08:10:43;;;;;;;3.00;2.70;;;17.30;74.90;;;;;;5113578;28;20059;-39
2022/06/06 08:13:26;;;;;;;4.60;2.42;;;17.40;74.90;;;;;;5114092;28;20411;-39
2022/06/06 08:16:06;;;;;;;3.25;1.98;;;17.40;74.70;;;;;;5113370;28;20030;-39
2022/06/06 08:18:36;;;;;;;2.15;1.52;;;17.50;74.10;;;;;;5113510;28;20026;-39
2022/06/06 08:21:23;;;;;;;2.90;1.52;;;17.60;73.60;;;;;;5113717;28;20023;-39
2022/06/06 08:23:55;;;;;;;4.63;1.80;;;17.70;72.70;;;;;;5113245;28;20032;-38
2022/06/06 08:26:23;;;;;;;3.38;1.38;;;17.70;72.00;;;;;;5113253;28;20066;-38
2022/06/06 08:28:50;;;;;;;1.98;1.30;;;17.70;71.00;;;;;;5113343;28;20111;-38
2022/06/06 08:31:16;;;;;;;3.17;1.60;;;17.70;71.30;;;;;;5113135;28;20027;-48
2022/06/06 08:33:41;;;;;;;3.42;1.58;;;17.60;71.40;;;;;;5113449;28;20031;-39
2022/06/06 08:36:37;;;;;;;3.70;1.70;;;17.60;71.30;;;;;;5113810;28;20091;-39
2022/06/06 08:39:14;;;;;;;3.70;2.05;;;17.50;71.10;;;;;;5113157;28;20027;-40
2022/06/06 08:42:18;;;;;;;3.22;1.83;;;17.40;70.80;;;;;;5113196;28;20606;-39
2022/06/06 08:45:08;;;;;;;2.28;1.77;;;17.30;70.90;;;;;;5113422;28;20028;-38
2022/06/06 08:47:58;;;;;;;3.85;2.40;;;17.20;71.40;;;;;;5112949;28;20104;-38
2022/06/06 08:51:02;;;;;;;2.40;1.88;;;17.10;71.20;;;;;;5113244;28;20343;-42
2022/06/06 08:53:39;;;;;;;3.90;1.98;;;17.10;71.70;;;;;;5070275;28;20091;-38
2022/06/06 08:56:30;;;;;;;3.47;1.98;;;17.10;71.90;;;;;;5070335;28;20544;-38
2022/06/06 08:59:24;;;;;;;3.25;2.03;;;17.10;71.80;;;;;;5094142;28;20036;-39
2022/06/06 09:02:11;;;;;;;2.22;1.80;;;17.10;71.40;;;;;;5111547;28;20118;-39
2022/06/06 09:05:04;;;;;;;3.65;1.80;;;17.10;71.40;;;;;;5112860;28;20474;-37
2022/06/06 09:07:54;;;;;;;2.07;1.63;;;17.20;71.50;;;;;;5113197;28;20024;-39
2022/06/06 09:10:57;;;;;;;2.03;1.40;;;17.40;71.30;;;;;;5113165;28;20265;-39
2022/06/06 09:14:01;;;;;;;1.98;1.10;;;17.40;70.20;;;;;;5113066;28;20023;-38
2022/06/06 09:16:41;;;;;;;1.10;1.00;;;17.50;69.60;;;;;;5112508;28;20470;-39
2022/06/06 09:19:28;;;;;;;3.72;1.33;;;17.50;69.20;;;;;;5112910;28;20024;-39
2022/06/06 09:22:11;;;;;;;1.65;1.15;;;17.60;68.80;;;;;;5111299;28;20034;-39
2022/06/06 09:25:00;;;;;;;2.85;1.30;;;17.60;69.00;;;;;;5114377;28;20072;-38
2022/06/06 09:27:50;;;;;;;2.38;1.20;;;17.70;69.00;;;;;;5096883;28;20061;-38
2022/06/06 09:30:27;;;;;;;1.25;1.08;;;17.90;68.70;;;;;;5116288;28;20035;-39
2022/06/06 09:33:14;;;;;;;2.25;1.10;;;17.90;68.60;;;;;;5116265;28;20085;-39
2022/06/06 09:36:04;;;;;;;2.75;1.20;;;18.10;68.30;;;;;;5116320;27;20023;-40
2022/06/06 09:38:57;;;;;;;3.00;1.10;;;18.20;67.40;;;;;;5116461;28;20103;-39
2022/06/06 09:41:41;;;;;;;1.75;1.20;;;18.20;66.80;;;;;;5116743;28;20039;-39
2022/06/06 09:44:39;;;;;;;4.43;1.35;;;18.10;66.00;;;;;;5116502;28;20036;-40
2022/06/06 09:47:35;;;;;;;2.70;1.20;;;18.20;66.40;;;;;;5116206;28;20042;-26
2022/06/06 09:50:23;;;;;;;1.83;1.10;;;18.20;66.90;;;;;;5116286;28;20077;-27
2022/06/06 09:53:07;;;;;;;3.28;1.25;;;18.20;67.10;;;;;;5115997;28;20019;-26
2022/06/06 09:59:29;;;;;;;2.00;1.55;;;18.20;67.40;;;;;;5116122;28;20093;-29
2022/06/06 10:01:57;;;;;;;2.03;1.85;;;18.20;67.30;;;;;;5093328;28;20044;-27
2022/06/06 10:04:50;;;;;;;1.67;1.23;;;18.20;67.30;;;;;;5115979;28;20023;-27
2022/06/06 10:07:54;;;;;;;1.67;1.48;;;18.30;66.90;;;;;;5115858;28;20024;-28
2022/06/06 10:10:52;;;;;;;2.70;1.45;;;18.40;67.10;;;;;;5115625;28;20487;-27
2022/06/06 10:13:34;;;;;;;2.20;1.52;;;18.50;66.40;;;;;;5115807;27;20417;-27
2022/06/06 10:16:09;;;;;;;2.05;1.30;;;18.70;66.40;;;;;;5115397;28;20015;-27
2022/06/06 10:18:51;;;;;;;1.70;1.60;;;18.90;66.10;;;;;;5115499;28;20103;-26
2022/06/06 10:21:28;;;;;;;1.60;1.42;;;18.90;65.70;;;;;;5115414;28;20030;-28
2022/06/06 10:24:06;;;;;;;2.25;1.48;;;18.90;65.60;;;;;;5115324;28;20039;-26
2022/06/06 10:26:49;;;;;;;1.77;1.15;;;18.90;65.70;;;;;;5115480;28;20535;-27
2022/06/06 10:30:10;;;;;;;1.48;1.33;;;18.80;65.80;;;;;;5115248;28;20032;-28
2022/06/06 10:32:36;;;;;;;1.85;1.58;;;18.80;65.80;;;;;;5114728;28;20050;-27
2022/06/06 10:35:31;;;;;;;2.53;1.60;;;18.70;65.90;;;;;;5114645;28;20127;-29
2022/06/06 10:38:18;;;;;;;2.80;1.40;;;18.60;67.20;;;;;;5114931;28;20510;-27
2022/06/06 10:41:00;;;;;;;5.40;1.83;;;18.60;65.80;;;;;;5114821;28;20023;-28
2022/06/06 10:43:32;;;;;;;3.70;1.73;;;18.50;65.90;;;;;;5115130;28;20031;-28
2022/06/06 10:46:25;;;;;;;1.75;1.40;;;18.50;65.60;;;;;;5114740;28;20024;-27
2022/06/06 10:49:05;;;;;;;2.50;2.28;;;18.50;65.60;;;;;;5114984;28;20409;-28
2022/06/06 10:51:49;;;;;;;2.58;1.77;;;18.50;65.70;;;;;;5114946;28;20100;-27
2022/06/06 10:54:33;;;;;;;2.03;1.73;;;18.50;65.70;;;;;;5114728;28;20031;-45
2022/06/06 10:57:29;;;;;;;3.13;1.95;;;18.50;65.60;;;;;;5113303;28;20391;-45
2022/06/06 11:00:22;;;;;;;3.35;1.95;;;18.60;65.30;;;;;;5114263;28;20089;-46
2022/06/06 11:03:10;;;;;;;2.30;1.80;;;18.70;65.50;;;;;;5114599;28;20394;-45
2022/06/06 11:05:54;;;;;;;2.72;1.70;;;18.80;65.30;;;;;;5114317;27;20106;-45
2022/06/06 11:08:45;;;;;;;3.25;1.67;;;18.90;65.60;;;;;;5112949;28;20030;-45
2022/06/06 11:11:11;;;;;;;4.05;1.70;;;19.00;65.80;;;;;;5109180;28;20128;-46
2022/06/06 11:13:51;;;;;;;3.28;2.08;;;19.00;66.10;;;;;;5114257;28;20027;-44
2022/06/06 11:16:29;;;;;;;2.47;2.28;;;18.90;66.50;;;;;;5114376;28;20035;-46
2022/06/06 11:19:19;;;;;;;3.38;2.10;;;18.90;66.70;;;;;;5114358;28;20020;-40
2022/06/06 11:22:25;;;;;;;3.35;2.20;;;18.80;66.90;;;;;;5113950;28;20024;-42
2022/06/06 11:25:05;;;;;;;2.80;2.15;;;18.90;67.10;;;;;;5113870;28;20027;-42
2022/06/06 11:28:02;;;;;;;2.20;2.00;;;19.00;67.00;;;;;;5114160;28;20020;-40
2022/06/06 11:31:04;;;;;;;1.80;1.70;;;19.10;66.70;;;;;;5114041;28;20421;-40
2022/06/06 11:33:35;;;;;;;3.03;2.03;;;19.20;66.10;;;;;;5094236;28;20036;-38
2022/06/06 11:36:25;;;;;;;3.40;2.90;;;19.30;65.90;;;;;;5113866;28;20024;-40
2022/06/06 11:38:51;;;;;;;4.38;3.00;;;19.30;64.70;;;;;;5114204;28;20016;-43
2022/06/06 11:41:46;;;;;;;2.35;2.10;;;19.40;64.80;;;;;;5114154;28;20024;-43
2022/06/06 11:44:36;;;;;;;2.90;1.75;;;19.50;64.90;;;;;;5114233;28;20348;-43
2022/06/06 11:47:14;;;;;;;1.90;1.30;;;19.60;64.30;;;;;;5113504;28;20016;-42
2022/06/06 11:50:08;;;;;;;2.30;1.60;;;19.70;64.20;;;;;;5113875;27;20028;-40
2022/06/06 11:52:53;;;;;;;1.70;1.25;;;19.80;63.80;;;;;;5113819;28;20110;-42
2022/06/06 11:55:50;;;;;;;2.75;1.20;;;20.00;63.30;;;;;;5113549;28;20051;-41
2022/06/06 11:58:45;;;;;;;2.75;2.30;;;20.00;63.40;;;;;;5113429;28;20108;-43
2022/06/06 12:01:22;;;;;;;1.60;1.50;;;20.10;63.10;;;;;;5113555;28;20024;-41
2022/06/06 12:04:15;;;;;;;4.15;1.70;;;20.20;63.40;;;;;;5113450;28;20031;-43
2022/06/06 12:06:57;;;;;;;2.83;1.60;;;20.20;63.30;;;;;;5113606;28;20079;-40
2022/06/06 12:09:41;;;;;;;2.00;1.42;;;20.00;63.40;;;;;;5113826;28;20019;-39
2022/06/06 12:12:16;;;;;;;2.08;1.50;;;19.80;64.00;;;;;;5113627;28;20027;-41
2022/06/06 12:14:57;;;;;;;1.70;1.60;;;19.60;64.50;;;;;;5113859;28;20042;-39
2022/06/06 12:18:00;;;;;;;2.13;1.50;;;19.40;64.90;;;;;;5113856;28;20491;-43
2022/06/06 12:20:37;;;;;;;2.10;1.20;;;19.20;65.50;;;;;;5113316;28;20035;-41
2022/06/06 12:23:11;;;;;;;2.05;1.30;;;19.10;65.60;;;;;;5113558;28;20036;-41
2022/06/06 12:25:48;;;;;;;2.88;1.58;;;19.00;65.80;;;;;;5113414;28;20020;-39
2022/06/06 12:28:26;;;;;;;4.40;1.67;;;19.10;66.00;;;;;;5113469;28;20039;-40
2022/06/06 12:31:06;;;;;;;2.03;1.50;;;19.20;65.70;;;;;;5113385;28;20429;-41
2022/06/06 12:33:44;;;;;;;2.30;1.35;;;19.40;65.10;;;;;;5113637;28;20467;-43
2022/06/06 12:36:20;;;;;;;2.83;1.90;;;19.40;65.00;;;;;;5113647;28;20096;-40
2022/06/06 12:38:49;;;;;;;3.20;1.75;;;19.30;65.40;;;;;;5113154;28;20020;-43
2022/06/06 12:41:32;;;;;;;2.63;1.77;;;19.10;65.70;;;;;;5113793;28;20118;-43
2022/06/06 12:44:43;;;;;;;5.07;1.90;;;18.90;66.20;;;;;;5113445;28;20020;-43
2022/06/06 12:47:30;;;;;;;2.42;1.73;;;18.70;67.10;;;;;;5096871;28;20518;-41
2022/06/06 12:50:14;;;;;;;4.60;2.20;;;18.50;68.00;;;;;;5112989;28;20023;-42
2022/06/06 12:52:58;;;;;;;3.53;1.58;;;18.30;69.00;;;;;;5113398;28;20373;-42
2022/06/06 12:58:29;;;;;;;2.28;1.50;;;17.90;70.60;;;;;;5112856;28;20533;-44
2022/06/06 13:04:12;;;;;;;1.92;1.60;;;17.90;71.30;;;;;;5117415;28;20038;-44
2022/06/06 13:07:01;;;;;;;2.00;1.60;;;18.00;71.10;;;;;;5117080;28;20035;-44
2022/06/06 13:09:32;;;;;;;2.00;1.45;;;18.00;71.00;;;;;;5117307;28;20042;-43
2022/06/06 13:12:07;;;;;;;2.20;1.60;;;18.10;70.90;;;;;;5117001;28;20036;-44
2022/06/06 13:15:02;;;;;;;3.20;1.58;;;18.20;70.60;;;;;;5117187;28;20035;-38
2022/06/06 13:17:33;;;;;;;2.53;1.77;;;18.30;70.70;;;;;;5116682;28;20094;-42
2022/06/06 13:20:27;;;;;;;2.10;1.73;;;18.40;70.50;;;;;;5116748;28;20016;-40
2022/06/06 13:23:14;;;;;;;3.33;1.55;;;18.30;70.30;;;;;;5116919;28;20023;-43
2022/06/06 13:25:58;;;;;;;2.05;1.73;;;18.20;70.20;;;;;;5116616;28;20420;-41
2022/06/06 13:28:40;;;;;;;3.45;2.30;;;18.20;70.30;;;;;;5116671;28;20024;-41
2022/06/06 13:31:37;;;;;;;3.40;2.35;;;18.30;70.10;;;;;;5116506;27;20091;-39
2022/06/06 13:34:08;;;;;;;4.05;3.00;;;18.50;69.90;;;;;;5116149;28;20032;-40
2022/06/06 13:37:05;;;;;;;4.72;3.05;;;18.70;69.50;;;;;;5116164;27;20028;-41
2022/06/06 13:39:56;;;;;;;3.45;2.40;;;18.90;68.90;;;;;;5116244;28;20031;-29
2022/06/06 13:42:44;;;;;;;4.57;2.80;;;19.10;68.20;;;;;;5116152;28;20053;-31
2022/06/06 13:45:29;;;;;;;2.92;2.20;;;19.10;67.20;;;;;;5116084;27;20128;-30
2022/06/06 13:48:13;;;;;;;1.42;1.20;;;19.10;67.30;;;;;;5115891;28;20040;-34
2022/06/06 13:50:45;;;;;;;2.72;1.20;;;19.00;66.60;;;;;;5114447;28;20127;-30
2022/06/06 13:53:48;;;;;;;1.75;1.20;;;18.90;66.70;;;;;;5116153;27;20027;-29
2022/06/06 13:56:38;;;;;;;2.67;1.40;;;18.70;66.70;;;;;;5115850;28;20019;-31
2022/06/06 13:59:43;;;;;;;1.63;1.00;;;18.70;67.00;;;;;;5115519;28;20036;-29
2022/06/06 14:02:31;;;;;;;2.63;1.10;;;18.60;67.30;;;;;;5094329;28;20050;-31
2022/06/06 14:05:24;;;;;;;1.33;1.02;;;18.70;67.50;;;;;;5115552;28;20036;-29
2022/06/06 14:08:10;;;;;;;1.25;0.93;;;18.70;67.50;;;;;;5115776;28;20038;-31